• Join FlightAware (Why Join?)
  • Login
  • US Flag 
07:34PM EST


 

Airport Tracker/Info


-or-


 

Live Flight TrackerFlight Track Log ✈ TAM3273 ✈ 03-Nov-2013 ✈ SBUL / UDI - SBSP / CGH

Flight Track Log - Related Links

Times and Time Zones

All times are in EST time to prevent confusion due to time zone crossing. See the TAM3273 flight status page for this flight to view local times or setup timezone preferences in your user account.

Time Position Orientation Groundspeed Altitude Reporting Facility
EST Latitude Longitude Course Direction KTS MPH feet Rate Location/Type
05:38AM -18.9440 -48.1790 176° South 281 323 8,800  Level FlightAware
05:39AM -19.0000 -48.1770 178° South 292 336 10,900 2,325 Climbing FlightAware
05:39AM -19.0570 -48.1760 179° South 336 387 11,900 2,160 Climbing FlightAware
05:40AM -19.1190 -48.1750 179° South 351 404 13,600 2,400 Climbing FlightAware
05:41AM -19.1800 -48.1740 179° South 367 422 14,900 2,308 Climbing FlightAware
05:41AM -19.2320 -48.1740 180° South 376 433 16,100 2,320 Climbing FlightAware
05:42AM -19.3070 -48.1730 179° South 383 441 17,800 2,400 Climbing FlightAware
05:43AM -19.3910 -48.1710 179° South 385 443 19,700 2,471 Climbing FlightAware
05:43AM -19.4620 -48.1700 179° South 385 443 21,300 1,800 Climbing FlightAware
05:44AM -19.5500 -48.1690 179° South 408 470 22,400 1,533 Climbing FlightAware
05:45AM -19.6280 -48.1680 179° South 413 475 23,600 1,895 Climbing FlightAware
05:46AM -19.7320 -48.1670 179° South 416 479 25,400 1,832 Climbing FlightAware
05:46AM -19.8110 -48.1660 179° South 419 482 26,500 1,575 Climbing FlightAware
05:47AM -19.8890 -48.1650 179° South 425 489 27,500 1,200 Climbing FlightAware
05:48AM -19.9660 -48.1640 179° South 437 503 28,100 1,200 Climbing FlightAware
05:49AM -20.0920 -48.1620 179° South 442 509 29,500 1,385 Climbing FlightAware
05:49AM -20.1480 -48.1610 179° South 444 511 30,200 1,400 Climbing FlightAware
05:50AM -20.2070 -48.1610 180° South 446 513 30,900 1,948 Climbing FlightAware
05:51AM -20.3180 -48.1590 179° South 432 497 32,700 2,071 Climbing FlightAware
05:51AM -20.3880 -48.1580 179° South 424 488 33,800 1,683 Climbing FlightAware
05:52AM -20.4790 -48.1570 179° South 421 484 35,000 1,435 Climbing FlightAware
05:53AM -20.5640 -48.1790 194° South 418 481 36,000 769 Climbing FlightAware
05:53AM -20.6140 -48.2130 212° Southwest 419 482 36,000  Level FlightAware
05:54AM -20.6690 -48.2500 212° Southwest 427 491 36,000  Level FlightAware
05:54AM -20.7160 -48.2820 212° Southwest 428 493 36,000  Level FlightAware
05:55AM -20.7890 -48.3330 213° Southwest 428 493 36,000  Level FlightAware
05:56AM -20.9010 -48.4110 213° Southwest 432 497 36,000  Level FlightAware
05:57AM -20.9640 -48.4540 213° Southwest 431 496 36,000  Level FlightAware
05:57AM -21.0320 -48.5000 212° Southwest 431 496 36,000  Level FlightAware
05:58AM -21.1110 -48.5390 205° Southwest 431 496 36,000  Level FlightAware
05:58AM -21.1390 -48.5410 184° South 432 497 36,000  Level FlightAware
05:59AM -21.2290 -48.5090 162° South 436 502 36,000 67 Level FlightAware
06:00AM -21.3030 -48.4630 150° Southeast 433 498 36,100  Climbing FlightAware
06:00AM -21.3600 -48.4280 150° Southeast 431 496 36,000 -73 Descending FlightAware
06:01AM -21.4440 -48.3740 149° Southeast 428 493 36,000  Level FlightAware
06:02AM -21.5260 -48.3220 149° Southeast 426 490 36,000  Level FlightAware
06:03AM -21.5860 -48.2840 150° Southeast 426 490 36,000  Level FlightAware
06:03AM -21.6480 -48.2440 149° Southeast 428 493 36,000  Level FlightAware
06:04AM -21.7120 -48.2030 149° Southeast 429 494 36,000  Level FlightAware
06:04AM -21.7670 -48.1680 149° Southeast 430 495 36,000  Level FlightAware
06:05AM -21.8520 -48.1190 152° Southeast 432 497 36,000  Level FlightAware
06:06AM -21.9170 -48.0840 153° Southeast 433 498 36,000  Level FlightAware
06:06AM -21.9760 -48.0530 154° Southeast 434 499 36,000  Level FlightAware
06:07AM -22.0530 -48.0120 154° Southeast 432 497 36,000 -659 Level FlightAware
06:08AM -22.1390 -47.9660 154° Southeast 425 489 35,000 -1,731 Descending FlightAware
06:09AM -22.2390 -47.9130 154° Southeast 435 501 33,000 -2,234 Descending FlightAware
06:09AM -22.3050 -47.8780 154° Southeast 436 502 31,500 -2,435 Descending FlightAware
06:10AM -22.3610 -47.8480 154° Southeast 444 511 30,200 -2,417 Descending FlightAware
06:11AM -22.4360 -47.8080 154° Southeast 445 512 28,600 -2,467 Descending FlightAware
06:11AM -22.5260 -47.7600 154° Southeast 431 496 26,500 -2,094 Descending FlightAware
06:12AM -22.6240 -47.7070 153° Southeast 370 426 24,900 -2,227 Descending FlightAware
06:13AM -22.6820 -47.6730 152° Southeast 359 413 22,900 -2,684 Descending FlightAware
06:14AM -22.7270 -47.6310 139° Southeast 339 390 21,500 -1,835 Descending FlightAware
06:14AM -22.7840 -47.5790 140° Southeast 335 386 20,300 -1,579 Descending FlightAware
06:15AM -22.8160 -47.5490 139° Southeast 334 384 19,500 -2,261 Descending FlightAware
06:16AM -22.8680 -47.5010 140° Southeast 346 398 17,700 -1,976 Descending FlightAware
06:16AM -22.9170 -47.4560 140° Southeast 337 388 16,800 -1,482 Descending FlightAware
06:17AM -22.9690 -47.4070 139° Southeast 335 386 15,600 -1,579 Descending FlightAware
06:18AM -23.0270 -47.3530 139° Southeast 322 371 14,300 -1,516 Descending FlightAware
06:19AM -23.0730 -47.3110 140° Southeast 321 369 13,300 -1,412 Descending FlightAware
06:19AM -23.1220 -47.2650 139° Southeast 316 364 12,300 -1,109 Descending FlightAware
06:20AM -23.1730 -47.2170 139° Southeast 296 341 11,600 -714 Descending FlightAware
06:21AM -23.2100 -47.1820 139° Southeast 269 310 11,300 -656 Descending FlightAware
06:21AM -23.2360 -47.1580 140° Southeast 256 295 10,900 -938 Descending FlightAware
06:22AM -23.2960 -47.1030 140° Southeast 243 280 9,800 -1,091 Descending FlightAware
06:23AM -23.3320 -47.0700 140° Southeast 243 280 8,900 -1,214 Descending FlightAware
06:24AM -23.3680 -47.0370 140° Southeast 238 274 8,100 -1,200 Descending FlightAware
06:24AM -23.4000 -47.0070 139° Southeast 236 272 7,300 -1,216 Descending FlightAware
06:25AM -23.4290 -46.9790 138° Southeast 236 272 6,600 -1,105 Descending FlightAware
06:26AM -23.4620 -46.9470 138° Southeast 237 273 5,900 -900 Descending FlightAware
06:26AM -23.4870 -46.9100 126° Southeast 238 274 5,400 -429 Descending FlightAware
06:27AM -23.4830 -46.8610 85° East 224 258 5,300 -75 Descending FlightAware
06:28AM -23.4820 -46.8220 88° East 205 236 5,300 -83 Level FlightAware
06:28AM -23.4810 -46.7860 88° East 201 231 5,200 -212 Descending FlightAware
06:29AM -23.4950 -46.7470 111° Southeast 187 215 5,000 -472 Descending FlightAware
06:30AM -23.5250 -46.7270 149° Southeast 162 186 4,500 -701 Descending FlightAware
06:30AM -23.5470 -46.7110 146° Southeast 157 181 4,100 -727 Descending FlightAware
06:31AM -23.5650 -46.6990 149° Southeast 149 171 3,700 -818 Descending FlightAware
06:31AM -23.5840 -46.6860 148° Southeast 141 162 3,200 -701 Descending FlightAware
06:32AM -23.6080 -46.6690 147° Southeast 136 157 2,800 -609 Descending FlightAware
06:32AM -23.6220 -46.6600 150° Southeast 135 155 2,500 -320 Descending FlightAware
06:33AM -23.6370 -46.6490 146° Southeast 131 151 2,400 -130 Descending FlightAware
06:36AM -23.6267 -46.6554 330° Northwest  Level Estimated
06:37AM -23.6267 -46.6554 114° Southeast  Level Estimated
06:38AM -23.6267 -46.6554 114° Southeast  Level Estimated
06:39AM -23.6267 -46.6554 114° Southeast  Level Estimated
06:40AM -23.6267 -46.6554 114° Southeast  Level Estimated
06:41AM -23.6267 -46.6554 114° Southeast  Level Estimated
06:42AM -23.6267 -46.6554 114° Southeast  Level Estimated
06:43AM -23.6267 -46.6554 114° Southeast  Level Estimated
06:44AM -23.6267 -46.6554 114° Southeast  Level Estimated